createdAt,value
2018-12-19T00:00:00.720Z,719.89
2018-12-19T00:01:01.189Z,719.97
2018-12-19T00:02:01.653Z,719.90
2018-12-19T00:03:02.150Z,719.93
2018-12-19T00:04:02.605Z,719.92
2018-12-19T00:05:03.095Z,719.89
2018-12-19T00:06:03.523Z,719.99
2018-12-19T00:07:03.991Z,719.91
2018-12-19T00:08:04.458Z,719.93
2018-12-19T00:09:04.924Z,719.91
2018-12-19T00:10:05.390Z,719.88
2018-12-19T00:11:05.858Z,719.85
2018-12-19T00:12:06.325Z,719.88
2018-12-19T00:13:06.844Z,719.85
2018-12-19T00:14:07.259Z,719.88
2018-12-19T00:15:07.726Z,719.80
2018-12-19T00:16:08.195Z,719.86
2018-12-19T00:17:08.663Z,719.83
2018-12-19T00:18:09.127Z,719.83
2018-12-19T00:19:09.594Z,719.81
2018-12-19T00:20:10.061Z,719.93
2018-12-19T00:21:10.529Z,719.86
2018-12-19T00:22:10.997Z,719.83
2018-12-19T00:23:11.465Z,719.87
2018-12-19T00:24:11.931Z,719.87
2018-12-19T00:25:12.399Z,719.89
2018-12-19T00:26:12.862Z,719.85
2018-12-19T00:27:13.332Z,719.76
2018-12-19T00:28:13.797Z,719.83
2018-12-19T00:29:14.266Z,719.83
2018-12-19T00:30:14.737Z,719.81
2018-12-19T00:31:15.199Z,719.77
2018-12-19T00:32:15.671Z,719.60
2018-12-19T00:33:16.139Z,719.72
2018-12-19T00:34:16.600Z,719.75
2018-12-19T00:35:17.069Z,719.75
2018-12-19T00:36:17.534Z,719.70
2018-12-19T00:37:18.006Z,719.72
2018-12-19T00:38:18.470Z,719.64
2018-12-19T00:39:18.935Z,719.64
2018-12-19T00:40:19.403Z,719.71
2018-12-19T00:41:19.870Z,719.75
2018-12-19T00:42:20.340Z,719.75
2018-12-19T00:43:20.804Z,719.69
2018-12-19T00:44:22.456Z,719.71
2018-12-19T00:45:21.739Z,719.62
2018-12-19T00:46:22.206Z,719.64
2018-12-19T00:47:22.673Z,719.65
2018-12-19T00:48:23.292Z,719.60
2018-12-19T00:49:23.606Z,719.66
2018-12-19T00:50:24.080Z,719.57
2018-12-19T00:51:24.540Z,719.60
2018-12-19T00:52:25.011Z,719.63
2018-12-19T00:53:25.538Z,719.64
2018-12-19T00:54:25.942Z,719.72
2018-12-19T00:55:26.413Z,719.58
2018-12-19T00:56:26.875Z,719.62
2018-12-19T00:57:27.343Z,719.65
2018-12-19T00:58:27.814Z,719.64
2018-12-19T00:59:28.279Z,719.58
2018-12-19T01:00:28.745Z,719.69
2018-12-19T01:01:29.213Z,719.61
2018-12-19T01:02:29.680Z,719.59
2018-12-19T01:03:30.147Z,719.59
2018-12-19T01:04:30.613Z,719.55
2018-12-19T01:05:31.081Z,719.63
2018-12-19T01:06:31.548Z,719.58
2018-12-19T01:07:32.015Z,719.61
2018-12-19T01:08:32.684Z,719.62
2018-12-19T01:09:32.949Z,719.51
2018-12-19T01:10:33.415Z,719.71
2018-12-19T01:11:33.883Z,719.62
2018-12-19T01:12:34.353Z,719.53
2018-12-19T01:13:34.817Z,719.56
2018-12-19T01:14:35.289Z,719.69
2018-12-19T01:15:35.751Z,719.65
2018-12-19T01:16:36.219Z,719.54
2018-12-19T01:17:36.686Z,719.60
2018-12-19T01:18:37.153Z,719.71
2018-12-19T01:19:37.618Z,719.56
2018-12-19T01:20:38.087Z,719.76
2018-12-19T01:21:38.555Z,719.59
2018-12-19T01:22:39.022Z,719.69
2018-12-19T01:23:39.486Z,719.79
2018-12-19T01:24:39.957Z,719.67
2018-12-19T01:25:40.424Z,719.66
2018-12-19T01:26:40.888Z,719.67
2018-12-19T01:27:41.357Z,719.97
2018-12-19T01:28:41.977Z,719.81
2018-12-19T01:29:42.298Z,719.78
2018-12-19T01:30:42.757Z,719.78
2018-12-19T01:31:43.254Z,719.80
2018-12-19T01:32:43.692Z,719.77
2018-12-19T01:33:44.160Z,719.77
2018-12-19T01:34:44.627Z,719.79
2018-12-19T01:35:45.093Z,719.70
2018-12-19T01:36:45.560Z,719.76
2018-12-19T01:37:46.031Z,719.79
2018-12-19T01:38:46.495Z,719.80
2018-12-19T01:39:46.963Z,719.78
2018-12-19T01:40:47.430Z,719.72
2018-12-19T01:41:47.897Z,719.79
2018-12-19T01:42:48.364Z,719.77
2018-12-19T01:43:48.830Z,719.66
2018-12-19T01:44:49.298Z,719.76
2018-12-19T01:45:49.766Z,719.73
2018-12-19T01:46:50.232Z,719.81
2018-12-19T01:47:50.699Z,719.82
2018-12-19T01:48:51.170Z,719.85
2018-12-19T01:49:51.635Z,719.82
2018-12-19T01:50:52.102Z,719.85
2018-12-19T01:51:52.569Z,719.90
2018-12-19T01:52:53.037Z,719.83
2018-12-19T01:53:53.504Z,719.78
2018-12-19T01:54:53.970Z,719.85
2018-12-19T01:55:54.438Z,719.84
2018-12-19T01:56:54.906Z,720.01
2018-12-19T01:57:55.373Z,719.87
2018-12-19T01:58:55.840Z,719.94
2018-12-19T01:59:56.307Z,719.84
2018-12-19T02:00:56.777Z,719.82
2018-12-19T02:01:57.246Z,719.93
2018-12-19T02:02:57.707Z,719.93
2018-12-19T02:03:58.176Z,719.96
2018-12-19T02:04:58.643Z,719.88
2018-12-19T02:05:59.111Z,719.89
2018-12-19T02:06:59.579Z,719.89
2018-12-19T02:08:00.045Z,719.96
2018-12-19T02:09:00.535Z,719.84
2018-12-19T02:10:01.007Z,719.95
2018-12-19T02:11:01.545Z,719.93
2018-12-19T02:12:01.913Z,719.92
2018-12-19T02:13:02.381Z,719.81
2018-12-19T02:14:02.853Z,719.89
2018-12-19T02:15:03.361Z,719.89
2018-12-19T02:16:03.921Z,719.71
2018-12-19T02:17:04.268Z,719.69
2018-12-19T02:18:04.717Z,719.85
2018-12-19T02:19:05.184Z,719.72
2018-12-19T02:20:05.654Z,719.74
2018-12-19T02:21:06.118Z,719.68
2018-12-19T02:22:06.587Z,719.80
2018-12-19T02:23:07.053Z,719.78
2018-12-19T02:24:07.570Z,719.89
2018-12-19T02:25:07.987Z,719.74
2018-12-19T02:26:08.456Z,719.78
2018-12-19T02:27:08.921Z,719.84
2018-12-19T02:28:09.391Z,719.65
2018-12-19T02:29:10.067Z,719.74
2018-12-19T02:30:10.324Z,719.72
2018-12-19T02:31:10.791Z,719.74
2018-12-19T02:32:11.257Z,719.70
2018-12-19T02:33:11.727Z,719.77
2018-12-19T02:34:12.195Z,719.68
2018-12-19T02:35:12.661Z,719.73
2018-12-19T02:36:13.127Z,719.63
2018-12-19T02:37:13.596Z,719.62
2018-12-19T02:38:14.064Z,719.59
2018-12-19T02:39:14.531Z,719.65
2018-12-19T02:40:14.999Z,719.60
2018-12-19T02:41:15.463Z,719.64
2018-12-19T02:42:15.940Z,719.54
2018-12-19T02:43:16.402Z,719.57
2018-12-19T02:44:16.915Z,719.59
2018-12-19T02:45:17.334Z,719.71
2018-12-19T02:46:17.798Z,719.72
2018-12-19T02:47:18.266Z,719.73
2018-12-19T02:48:18.734Z,719.67
2018-12-19T02:49:19.203Z,719.66
2018-12-19T02:50:19.672Z,719.74
2018-12-19T02:51:20.132Z,719.64
2018-12-19T02:52:20.602Z,719.68
2018-12-19T02:53:21.070Z,719.71
2018-12-19T02:54:21.538Z,719.62
2018-12-19T02:55:22.001Z,719.71
2018-12-19T02:56:22.469Z,719.66
2018-12-19T02:57:22.939Z,719.75
2018-12-19T02:58:23.404Z,719.63
2018-12-19T02:59:23.871Z,719.73
2018-12-19T03:00:24.341Z,719.62
2018-12-19T03:01:24.808Z,719.70
2018-12-19T03:02:25.273Z,719.76
2018-12-19T03:03:25.742Z,719.63
2018-12-19T03:04:26.209Z,719.70
2018-12-19T03:05:26.677Z,719.69
2018-12-19T03:06:27.143Z,719.63
2018-12-19T03:07:27.609Z,719.62
2018-12-19T03:08:28.076Z,719.60
2018-12-19T03:09:28.545Z,719.63
2018-12-19T03:10:29.016Z,719.67
2018-12-19T03:11:29.487Z,719.56
2018-12-19T03:12:29.943Z,719.64
2018-12-19T03:13:30.413Z,719.61
2018-12-19T03:14:30.879Z,719.65
2018-12-19T03:15:31.349Z,719.68
2018-12-19T03:16:31.816Z,719.60
2018-12-19T03:17:32.283Z,719.57
2018-12-19T03:18:32.747Z,719.58
2018-12-19T03:19:33.264Z,719.69
2018-12-19T03:20:33.680Z,719.58
2018-12-19T03:21:34.150Z,719.56
2018-12-19T03:22:34.614Z,719.66
2018-12-19T03:23:35.083Z,719.73
2018-12-19T03:24:35.550Z,719.64
2018-12-19T03:25:36.018Z,719.63
2018-12-19T03:26:36.483Z,719.69
2018-12-19T03:27:36.950Z,719.60
2018-12-19T03:28:37.417Z,719.59
2018-12-19T03:29:37.885Z,719.71
2018-12-19T03:30:38.357Z,719.69
2018-12-19T03:31:38.822Z,719.64
2018-12-19T03:32:39.287Z,719.65
2018-12-19T03:33:39.756Z,719.63
2018-12-19T03:34:40.220Z,719.64
2018-12-19T03:35:40.726Z,719.63
2018-12-19T03:36:41.157Z,719.62
2018-12-19T03:37:41.624Z,719.67
2018-12-19T03:38:42.088Z,719.73
2018-12-19T03:39:42.556Z,719.68
2018-12-19T03:40:43.025Z,719.71
2018-12-19T03:41:43.492Z,719.62
2018-12-19T03:42:43.957Z,719.62
2018-12-19T03:43:44.428Z,719.68
2018-12-19T03:44:44.947Z,719.74
2018-12-19T03:45:45.357Z,719.66
2018-12-19T03:46:45.826Z,719.63
2018-12-19T03:47:46.294Z,719.66
2018-12-19T03:48:46.760Z,719.59
2018-12-19T03:49:47.227Z,719.58
2018-12-19T03:50:47.695Z,719.71
2018-12-19T03:51:48.161Z,719.55
2018-12-19T03:52:48.630Z,719.61
2018-12-19T03:53:49.096Z,719.46
2018-12-19T03:54:49.565Z,719.52
2018-12-19T03:55:50.028Z,719.60
2018-12-19T03:56:50.497Z,719.60
2018-12-19T03:57:50.963Z,719.62
2018-12-19T03:58:51.432Z,719.67
2018-12-19T03:59:51.899Z,719.61
2018-12-19T04:00:52.366Z,719.63
2018-12-19T04:01:52.833Z,719.66
2018-12-19T04:02:53.301Z,719.63
2018-12-19T04:03:53.765Z,719.65
2018-12-19T04:04:54.234Z,719.67
2018-12-19T04:05:54.702Z,719.60
2018-12-19T04:06:55.175Z,719.70
2018-12-19T04:07:55.637Z,719.69
2018-12-19T04:08:56.104Z,719.60
2018-12-19T04:09:58.015Z,719.71
2018-12-19T04:10:57.038Z,719.66
2018-12-19T04:11:57.503Z,719.67
2018-12-19T04:12:57.972Z,719.66
2018-12-19T04:13:58.440Z,719.69
2018-12-19T04:14:58.929Z,719.59
2018-12-19T04:15:59.374Z,719.69
2018-12-19T04:16:59.842Z,719.66
2018-12-19T04:18:00.309Z,719.65
2018-12-19T04:19:00.788Z,719.60
2018-12-19T04:20:01.248Z,719.65
2018-12-19T04:21:01.713Z,719.65
2018-12-19T04:22:02.180Z,719.67
2018-12-19T04:23:02.818Z,719.61
2018-12-19T04:24:03.120Z,719.44
2018-12-19T04:25:03.582Z,719.58
2018-12-19T04:26:04.047Z,719.68
2018-12-19T04:27:04.517Z,719.57
2018-12-19T04:28:04.982Z,719.56
2018-12-19T04:29:05.450Z,719.65
2018-12-19T04:30:05.916Z,719.75
2018-12-19T04:31:06.386Z,719.76
2018-12-19T04:32:06.851Z,719.72
2018-12-19T04:33:07.320Z,719.64
2018-12-19T04:34:07.785Z,719.58
2018-12-19T04:35:08.254Z,719.59
2018-12-19T04:36:08.717Z,719.51
2018-12-19T04:37:09.187Z,719.65
2018-12-19T04:38:09.653Z,719.65
2018-12-19T04:39:10.122Z,719.63
2018-12-19T04:40:10.642Z,719.67
2018-12-19T04:41:11.056Z,719.69
2018-12-19T04:42:11.523Z,719.72
2018-12-19T04:43:11.993Z,719.72
2018-12-19T04:44:12.456Z,719.66
2018-12-19T04:45:12.925Z,719.71
2018-12-19T04:46:13.390Z,719.68
2018-12-19T04:47:13.858Z,719.65
2018-12-19T04:48:14.324Z,719.74
2018-12-19T04:49:14.796Z,719.67
2018-12-19T04:50:15.261Z,719.67
2018-12-19T04:51:15.728Z,719.68
2018-12-19T04:52:16.192Z,719.69
2018-12-19T04:53:16.662Z,719.63
2018-12-19T04:54:17.129Z,719.66
2018-12-19T04:55:17.903Z,719.65
2018-12-19T04:56:18.064Z,719.62
2018-12-19T04:57:18.532Z,719.69
2018-12-19T04:58:19.001Z,719.68
2018-12-19T04:59:19.467Z,719.73
2018-12-19T05:00:19.931Z,719.77
2018-12-19T05:01:20.401Z,719.78
2018-12-19T05:02:20.867Z,719.74
2018-12-19T05:03:21.335Z,719.72
2018-12-19T05:04:21.800Z,719.72
2018-12-19T05:05:22.270Z,719.83
2018-12-19T05:06:22.743Z,719.82
2018-12-19T05:07:23.215Z,719.80
2018-12-19T05:08:23.671Z,719.79
2018-12-19T05:09:24.138Z,719.75
2018-12-19T05:10:24.609Z,719.75
2018-12-19T05:11:25.072Z,719.75
2018-12-19T05:12:25.540Z,719.66
2018-12-19T05:13:26.007Z,719.63
2018-12-19T05:14:26.476Z,719.67
2018-12-19T05:15:26.994Z,719.64
2018-12-19T05:16:27.410Z,719.64
2018-12-19T05:17:27.880Z,719.68
2018-12-19T05:18:28.345Z,719.68
2018-12-19T05:19:28.817Z,719.71
2018-12-19T05:20:29.279Z,719.65
2018-12-19T05:21:29.749Z,719.66
2018-12-19T05:22:30.214Z,719.68
2018-12-19T05:23:30.684Z,719.64
2018-12-19T05:24:31.149Z,719.59
2018-12-19T05:25:31.616Z,719.63
2018-12-19T05:26:32.086Z,719.61
2018-12-19T05:27:32.554Z,719.61
2018-12-19T05:28:33.020Z,719.60
2018-12-19T05:29:33.487Z,719.66
2018-12-19T05:30:33.961Z,719.63
2018-12-19T05:31:34.426Z,719.64
2018-12-19T05:32:34.889Z,719.62
2018-12-19T05:33:35.357Z,719.63
2018-12-19T05:34:35.826Z,719.62
2018-12-19T05:35:36.295Z,719.59
2018-12-19T05:36:36.763Z,719.55
2018-12-19T05:37:37.227Z,719.61
2018-12-19T05:38:37.696Z,719.54
2018-12-19T05:39:38.164Z,719.58
2018-12-19T05:40:38.631Z,719.58
2018-12-19T05:41:39.100Z,719.48
2018-12-19T05:42:39.567Z,719.55
2018-12-19T05:43:40.045Z,719.50
2018-12-19T05:44:40.503Z,719.50
2018-12-19T05:45:40.970Z,719.54
2018-12-19T05:46:41.438Z,719.47
2018-12-19T05:47:41.905Z,719.48
2018-12-19T05:48:42.375Z,719.53
2018-12-19T05:49:42.841Z,719.55
2018-12-19T05:50:43.311Z,719.52
2018-12-19T05:51:43.777Z,719.49
2018-12-19T05:52:44.247Z,719.50
2018-12-19T05:53:44.712Z,719.48
2018-12-19T05:54:45.179Z,719.44
2018-12-19T05:55:45.700Z,719.42
2018-12-19T05:56:46.115Z,719.46
2018-12-19T05:57:46.584Z,719.44
2018-12-19T05:58:47.052Z,719.44
2018-12-19T05:59:47.519Z,719.46
2018-12-19T06:00:47.985Z,719.39
2018-12-19T06:01:48.456Z,719.37
2018-12-19T06:02:48.922Z,719.40
2018-12-19T06:03:49.390Z,719.38
2018-12-19T06:04:49.857Z,719.38
2018-12-19T06:05:50.325Z,719.38
2018-12-19T06:06:50.793Z,719.37
2018-12-19T06:07:51.263Z,719.35
2018-12-19T06:08:51.728Z,719.33
2018-12-19T06:09:52.196Z,719.35
2018-12-19T06:10:52.715Z,719.34
2018-12-19T06:11:53.132Z,719.38
2018-12-19T06:12:53.601Z,719.38
2018-12-19T06:13:54.067Z,719.37
2018-12-19T06:14:54.535Z,719.37
2018-12-19T06:15:55.054Z,719.40
2018-12-19T06:16:55.470Z,719.34
2018-12-19T06:17:55.938Z,719.30
2018-12-19T06:18:56.407Z,719.30
2018-12-19T06:19:56.874Z,719.25
2018-12-19T06:20:57.340Z,719.24
2018-12-19T06:21:57.808Z,719.30
2018-12-19T06:22:58.278Z,719.32
2018-12-19T06:23:58.749Z,719.30
2018-12-19T06:24:59.211Z,719.31
2018-12-19T06:25:59.679Z,719.29
2018-12-19T06:27:00.161Z,719.32
2018-12-19T06:28:00.621Z,719.32
2018-12-19T06:29:01.121Z,719.32
2018-12-19T06:30:01.564Z,719.31
2018-12-19T06:31:02.069Z,719.28
2018-12-19T06:32:02.488Z,719.27
2018-12-19T06:33:02.955Z,719.27
2018-12-19T06:34:03.422Z,719.30
2018-12-19T06:35:03.894Z,719.21
2018-12-19T06:36:04.359Z,719.27
2018-12-19T06:37:04.826Z,719.21
2018-12-19T06:38:05.294Z,719.26
2018-12-19T06:39:05.761Z,719.26
2018-12-19T06:40:06.231Z,719.20
2018-12-19T06:41:06.706Z,719.24
2018-12-19T06:42:07.165Z,719.26
2018-12-19T06:43:07.638Z,719.16
2018-12-19T06:44:08.101Z,719.22
2018-12-19T06:45:08.568Z,719.20
2018-12-19T06:46:09.087Z,719.18
2018-12-19T06:47:09.504Z,719.10
2018-12-19T06:48:09.971Z,719.09
2018-12-19T06:49:10.438Z,719.13
2018-12-19T06:50:10.906Z,719.10
2018-12-19T06:51:11.376Z,719.09
2018-12-19T06:52:11.841Z,719.13
2018-12-19T06:53:12.310Z,719.07
2018-12-19T06:54:12.777Z,719.05
2018-12-19T06:55:13.246Z,719.10
2018-12-19T06:56:13.717Z,719.09
2018-12-19T06:57:14.179Z,719.09
2018-12-19T06:58:14.646Z,719.14
2018-12-19T06:59:15.116Z,719.14
2018-12-19T07:00:15.584Z,719.14
2018-12-19T07:01:16.102Z,719.12
2018-12-19T07:02:16.519Z,719.10
2018-12-19T07:03:16.987Z,719.13
2018-12-19T07:04:17.457Z,719.11
2018-12-19T07:05:17.923Z,719.10
2018-12-19T07:06:18.391Z,719.10
2018-12-19T07:07:18.858Z,719.09
2018-12-19T07:08:19.325Z,719.12
2018-12-19T07:09:19.793Z,719.13
2018-12-19T07:10:20.261Z,719.14
2018-12-19T07:11:20.734Z,719.15
2018-12-19T07:12:21.196Z,719.15
2018-12-19T07:13:21.665Z,719.15
2018-12-19T07:14:22.133Z,719.22
2018-12-19T07:15:22.601Z,719.14
2018-12-19T07:16:23.120Z,719.11
2018-12-19T07:17:23.536Z,719.12
2018-12-19T07:18:24.004Z,719.09
2018-12-19T07:19:24.474Z,719.08
2018-12-19T07:20:24.940Z,719.09
2018-12-19T07:21:26.023Z,719.07
2018-12-19T07:22:25.873Z,719.09
2018-12-19T07:23:26.341Z,719.13
2018-12-19T07:24:26.811Z,719.23
2018-12-19T07:25:27.278Z,719.19
2018-12-19T07:26:27.747Z,719.23
2018-12-19T07:27:28.213Z,719.17
2018-12-19T07:28:28.684Z,719.18
2018-12-19T07:29:29.149Z,719.12
2018-12-19T07:30:29.617Z,719.09
2018-12-19T07:31:30.085Z,719.10
2018-12-19T07:32:30.553Z,719.08
2018-12-19T07:33:31.022Z,719.09
2018-12-19T07:34:31.487Z,719.18
2018-12-19T07:35:31.956Z,719.15
2018-12-19T07:36:32.423Z,719.15
2018-12-19T07:37:32.893Z,719.15
2018-12-19T07:38:33.358Z,719.10
2018-12-19T07:39:33.827Z,719.11
2018-12-19T07:40:34.296Z,719.12
2018-12-19T07:41:34.763Z,719.09
2018-12-19T07:42:35.229Z,719.14
2018-12-19T07:43:35.698Z,719.12
2018-12-19T07:44:36.169Z,719.17
2018-12-19T07:45:36.634Z,719.15
2018-12-19T07:46:37.104Z,719.14
2018-12-19T07:47:37.572Z,719.15
2018-12-19T07:48:38.038Z,719.14
2018-12-19T07:49:38.506Z,719.13
2018-12-19T07:50:38.975Z,719.12
2018-12-19T07:51:39.440Z,719.16
2018-12-19T07:52:39.908Z,719.13
2018-12-19T07:53:40.382Z,719.16
2018-12-19T07:54:40.844Z,719.17
2018-12-19T07:55:41.311Z,719.20
2018-12-19T07:56:41.831Z,719.21
2018-12-19T07:57:42.246Z,719.20
2018-12-19T07:58:42.717Z,719.12
2018-12-19T07:59:43.183Z,719.21
2018-12-19T08:00:43.651Z,719.10
2018-12-19T08:01:44.119Z,719.12
2018-12-19T08:02:44.587Z,719.14
2018-12-19T08:03:45.055Z,719.15
2018-12-19T08:04:45.525Z,719.15
2018-12-19T08:05:45.991Z,719.12
2018-12-19T08:06:46.461Z,719.17
2018-12-19T08:07:46.924Z,719.13
2018-12-19T08:08:47.397Z,719.13
2018-12-19T08:09:47.860Z,719.08
2018-12-19T08:10:52.127Z,719.00
2018-12-19T08:11:48.797Z,719.01
2018-12-19T08:12:49.269Z,718.95
2018-12-19T08:13:49.730Z,718.95
2018-12-19T08:14:50.199Z,718.91
2018-12-19T08:15:50.667Z,718.92
2018-12-19T08:16:51.137Z,718.93
2018-12-19T08:17:51.602Z,718.99
2018-12-19T08:18:52.072Z,718.94
2018-12-19T08:19:52.539Z,719.03
2018-12-19T08:20:53.006Z,719.06
2018-12-19T08:21:53.471Z,719.02
2018-12-19T08:22:53.940Z,719.09
2018-12-19T08:23:54.410Z,719.02
2018-12-19T08:24:54.876Z,719.07
2018-12-19T08:25:55.342Z,719.05
2018-12-19T08:26:55.812Z,718.98
2018-12-19T08:27:56.279Z,719.00
2018-12-19T08:28:56.748Z,719.00
2018-12-19T08:29:57.214Z,718.99
2018-12-19T08:30:57.684Z,719.00
2018-12-19T08:31:58.151Z,718.99
2018-12-19T08:32:58.618Z,719.00
2018-12-19T08:33:59.084Z,719.03
2018-12-19T08:34:59.552Z,718.94
2018-12-19T08:36:00.021Z,719.02
2018-12-19T08:37:00.489Z,718.95
2018-12-19T08:38:00.953Z,718.91
2018-12-19T08:39:01.424Z,718.83
2018-12-19T08:40:01.890Z,718.86
2018-12-19T08:41:02.358Z,718.80
2018-12-19T08:42:02.825Z,718.80
2018-12-19T08:43:03.294Z,718.84
2018-12-19T08:44:03.759Z,718.85
2018-12-19T08:45:04.228Z,718.86
2018-12-19T08:46:04.697Z,718.90
2018-12-19T08:47:05.163Z,718.90
2018-12-19T08:48:05.631Z,718.97
2018-12-19T08:49:06.100Z,718.92
2018-12-19T08:50:06.565Z,718.99
2018-12-19T08:51:07.033Z,718.91
2018-12-19T08:52:07.501Z,718.92
2018-12-19T08:53:07.971Z,718.90
2018-12-19T08:54:08.438Z,718.92
2018-12-19T08:55:08.913Z,718.89
2018-12-19T08:56:09.371Z,718.97
2018-12-19T08:57:09.852Z,719.02
2018-12-19T08:58:10.307Z,719.02
2018-12-19T08:59:10.776Z,719.05
2018-12-19T09:00:11.242Z,719.05
2018-12-19T09:01:11.711Z,719.07
2018-12-19T09:02:12.179Z,719.01
2018-12-19T09:03:12.648Z,719.06
2018-12-19T09:04:13.112Z,718.97
2018-12-19T09:05:13.581Z,719.01
2018-12-19T09:06:14.048Z,718.97
2018-12-19T09:07:14.566Z,719.00
2018-12-19T09:08:14.982Z,719.01
2018-12-19T09:09:15.451Z,719.02
2018-12-19T09:10:15.921Z,719.04
2018-12-19T09:11:16.389Z,719.06
2018-12-19T09:12:16.856Z,719.07
2018-12-19T09:13:17.324Z,719.08
2018-12-19T09:14:17.790Z,719.04
2018-12-19T09:15:18.255Z,719.04
2018-12-19T09:16:18.725Z,719.06
2018-12-19T09:17:19.192Z,719.10
2018-12-19T09:18:19.661Z,719.15
2018-12-19T09:19:20.127Z,719.14
2018-12-19T09:20:20.596Z,719.16
2018-12-19T09:21:21.061Z,719.13
2018-12-19T09:22:21.530Z,719.14
2018-12-19T09:23:21.998Z,719.15
2018-12-19T09:24:22.469Z,719.18
2018-12-19T09:25:22.935Z,719.22
2018-12-19T09:26:23.402Z,719.16
2018-12-19T09:27:23.869Z,719.13
2018-12-19T09:28:24.342Z,719.09
2018-12-19T09:29:24.804Z,719.08
2018-12-19T09:30:25.274Z,719.04
2018-12-19T09:31:25.737Z,719.05
2018-12-19T09:32:26.207Z,719.02
2018-12-19T09:33:27.598Z,719.04
2018-12-19T09:34:27.140Z,719.08
2018-12-19T09:35:27.609Z,719.05
2018-12-19T09:36:28.077Z,719.05
2018-12-19T09:37:28.543Z,719.04
2018-12-19T09:38:29.013Z,719.02
2018-12-19T09:39:29.478Z,719.04
2018-12-19T09:40:29.947Z,719.01
2018-12-19T09:41:30.421Z,718.94
2018-12-19T09:42:30.883Z,718.85
2018-12-19T09:43:31.349Z,718.91
2018-12-19T09:44:31.820Z,718.90
2018-12-19T09:45:32.285Z,718.87
2018-12-19T09:46:32.754Z,718.94
2018-12-19T09:47:33.218Z,718.98
2018-12-19T09:48:33.689Z,718.91
2018-12-19T09:49:34.160Z,718.94
2018-12-19T09:50:34.623Z,718.90
2018-12-19T09:51:35.090Z,718.84
2018-12-19T09:52:35.558Z,718.83
2018-12-19T09:53:36.027Z,718.86
2018-12-19T09:54:36.491Z,718.79
2018-12-19T09:55:36.959Z,718.84
2018-12-19T09:56:37.428Z,718.80
2018-12-19T09:57:37.895Z,718.84
2018-12-19T09:58:38.362Z,718.85
2018-12-19T09:59:38.830Z,718.88
2018-12-19T10:00:39.298Z,718.83
2018-12-19T10:01:39.769Z,718.83
2018-12-19T10:02:40.234Z,718.82
2018-12-19T10:03:40.702Z,718.78
2018-12-19T10:04:41.169Z,718.78
2018-12-19T10:05:41.638Z,718.75
2018-12-19T10:06:42.105Z,718.73
2018-12-19T10:07:42.571Z,718.68
2018-12-19T10:08:43.039Z,718.74
2018-12-19T10:09:43.507Z,718.77
2018-12-19T10:10:43.972Z,718.74
2018-12-19T10:11:44.441Z,718.71
2018-12-19T10:12:44.908Z,718.68
2018-12-19T10:13:45.378Z,718.70
2018-12-19T10:14:45.844Z,718.69
2018-12-19T10:15:46.313Z,718.68
2018-12-19T10:16:46.783Z,718.64
2018-12-19T10:17:47.250Z,718.66
2018-12-19T10:18:47.715Z,718.68
2018-12-19T10:19:48.182Z,718.62
2018-12-19T10:20:48.651Z,718.63
2018-12-19T10:21:49.118Z,718.57
2018-12-19T10:22:49.586Z,718.59
2018-12-19T10:23:50.052Z,718.61
2018-12-19T10:24:50.520Z,718.60
2018-12-19T10:25:50.989Z,718.60
2018-12-19T10:26:51.455Z,718.61
2018-12-19T10:27:51.975Z,718.60
2018-12-19T10:28:52.392Z,718.61
2018-12-19T10:29:52.858Z,718.61
2018-12-19T10:30:53.327Z,718.60
2018-12-19T10:31:53.793Z,718.52
2018-12-19T10:32:54.262Z,718.57
2018-12-19T10:33:54.736Z,718.56
2018-12-19T10:34:55.199Z,718.60
2018-12-19T10:35:55.664Z,718.56
2018-12-19T10:36:56.136Z,718.57
2018-12-19T10:37:56.601Z,718.57
2018-12-19T10:38:57.069Z,718.51
2018-12-19T10:39:57.537Z,718.55
2018-12-19T10:40:58.007Z,718.58
2018-12-19T10:41:58.472Z,718.55
2018-12-19T10:42:58.939Z,718.53
2018-12-19T10:43:59.407Z,718.49
2018-12-19T10:44:59.874Z,718.46
2018-12-19T10:46:00.346Z,718.43
2018-12-19T10:47:00.810Z,718.37
2018-12-19T10:48:01.319Z,718.38
2018-12-19T10:49:01.815Z,718.45
2018-12-19T10:50:02.216Z,718.40
2018-12-19T10:51:02.681Z,718.43
2018-12-19T10:52:03.150Z,718.41
2018-12-19T10:53:03.617Z,718.34
2018-12-19T10:54:04.085Z,718.41
2018-12-19T10:55:04.560Z,718.36
2018-12-19T10:56:05.022Z,718.33
2018-12-19T10:57:05.488Z,718.29
2018-12-19T10:58:05.958Z,718.29
2018-12-19T10:59:06.425Z,718.30
2018-12-19T11:00:06.896Z,718.30
2018-12-19T11:01:07.361Z,718.32
2018-12-19T11:02:07.829Z,718.36
2018-12-19T11:03:08.296Z,718.36
2018-12-19T11:04:08.765Z,718.28
2018-12-19T11:05:09.232Z,718.26
2018-12-19T11:06:09.699Z,718.25
2018-12-19T11:07:10.168Z,718.29
2018-12-19T11:08:10.634Z,718.25
2018-12-19T11:09:11.102Z,718.15
2018-12-19T11:10:11.572Z,718.22
2018-12-19T11:11:12.038Z,718.17
2018-12-19T11:12:12.507Z,718.18
2018-12-19T11:13:12.975Z,718.19
2018-12-19T11:14:13.443Z,718.15
2018-12-19T11:15:13.911Z,718.08
2018-12-19T11:16:14.378Z,718.00
2018-12-19T11:17:14.846Z,717.99
2018-12-19T11:18:15.317Z,717.92
2018-12-19T11:19:15.783Z,717.93
2018-12-19T11:20:16.252Z,717.95
2018-12-19T11:21:16.719Z,717.92
2018-12-19T11:22:17.192Z,717.95
2018-12-19T11:23:17.653Z,717.97
2018-12-19T11:24:18.124Z,717.92
2018-12-19T11:25:18.590Z,717.87
2018-12-19T11:26:19.060Z,717.86
2018-12-19T11:27:19.527Z,717.84
2018-12-19T11:28:19.995Z,717.83
2018-12-19T11:29:20.462Z,717.81
2018-12-19T11:30:20.930Z,717.82
2018-12-19T11:31:21.400Z,717.82
2018-12-19T11:32:21.865Z,717.83
2018-12-19T11:33:22.332Z,717.85
2018-12-19T11:34:22.803Z,717.80
2018-12-19T11:35:23.270Z,717.79
2018-12-19T11:36:23.737Z,717.78
2018-12-19T11:37:24.204Z,717.78
2018-12-19T11:38:24.726Z,717.78
2018-12-19T11:39:25.141Z,717.83
2018-12-19T11:40:25.609Z,717.80
2018-12-19T11:41:26.076Z,717.84
2018-12-19T11:42:26.576Z,717.81
2018-12-19T11:43:27.014Z,717.81
2018-12-19T11:44:27.482Z,717.85
2018-12-19T11:45:27.949Z,717.83
2018-12-19T11:46:28.416Z,717.75
2018-12-19T11:47:28.889Z,717.79
2018-12-19T11:48:29.356Z,717.80
2018-12-19T11:49:29.822Z,717.82
2018-12-19T11:50:30.290Z,717.70
2018-12-19T11:51:30.764Z,717.70
2018-12-19T11:52:31.225Z,717.72
2018-12-19T11:53:31.698Z,717.67
2018-12-19T11:54:32.164Z,717.75
2018-12-19T11:55:32.633Z,717.73
2018-12-19T11:56:33.097Z,717.65
2018-12-19T11:57:34.411Z,717.70
2018-12-19T11:58:34.087Z,717.70
2018-12-19T11:59:34.502Z,717.75
2018-12-19T12:00:35.046Z,717.77
2018-12-19T12:01:41.159Z,717.75
2018-12-19T12:02:35.965Z,717.74
2018-12-19T12:03:36.418Z,717.66
2018-12-19T12:04:36.855Z,717.65
2018-12-19T12:05:37.384Z,717.61
2018-12-19T12:06:37.800Z,717.61
2018-12-19T12:07:38.278Z,717.63
2018-12-19T12:08:38.808Z,717.65
2018-12-19T12:09:39.210Z,717.65
2018-12-19T12:10:39.675Z,717.60
2018-12-19T12:11:45.675Z,717.58
2018-12-19T12:12:40.603Z,717.53
2018-12-19T12:13:42.611Z,717.58
2018-12-19T12:14:41.567Z,717.58
2018-12-19T12:15:42.111Z,717.56
2018-12-19T12:16:42.515Z,717.55
2018-12-19T12:17:42.977Z,717.57
2018-12-19T12:18:43.565Z,717.53
2018-12-19T12:19:43.907Z,717.55
2018-12-19T12:20:44.359Z,717.56
2018-12-19T12:21:44.826Z,717.53
2018-12-19T12:22:45.294Z,717.54
2018-12-19T12:23:47.423Z,717.49
2018-12-19T12:24:46.303Z,717.45
2018-12-19T12:25:46.698Z,717.43
2018-12-19T12:26:47.198Z,717.48
2018-12-19T12:27:47.646Z,717.46
2018-12-19T12:28:48.181Z,717.50
2018-12-19T12:29:48.583Z,717.47
2018-12-19T12:30:49.060Z,717.47
2018-12-19T12:31:49.510Z,717.39
2018-12-19T12:32:50.020Z,717.40
2018-12-19T12:33:50.793Z,717.46